sensor_id;sensor_type;location;lat;lon;timestamp;pressure;altitude;pressure_sealevel;temperature;humidity
69405;BME280;57084;52.046;5.632;2022-09-17T00:00:00;101190;;;14.8;60.5
69405;BME280;57084;52.046;5.632;2022-09-17T00:01:00;101190;;;14.8;60.5
69405;BME280;57084;52.046;5.632;2022-09-17T00:02:00;101190;;;14.8;60.5
69405;BME280;57084;52.046;5.632;2022-09-17T00:03:00;101190;;;14.8;60.5
69405;BME280;57084;52.046;5.632;2022-09-17T00:04:00;101190;;;14.8;60.6
69405;BME280;57084;52.046;5.632;2022-09-17T00:05:00;101190;;;14.8;60.6
69405;BME280;57084;52.046;5.632;2022-09-17T00:06:00;101190;;;14.8;60.5
69405;BME280;57084;52.046;5.632;2022-09-17T00:07:00;101190;;;14.8;60.5
69405;BME280;57084;52.046;5.632;2022-09-17T00:08:00;101200;;;14.8;60.6
69405;BME280;57084;52.046;5.632;2022-09-17T00:09:00;101200;;;14.8;60.6
69405;BME280;57084;52.046;5.632;2022-09-17T00:10:00;101200;;;14.8;60.6
69405;BME280;57084;52.046;5.632;2022-09-17T00:11:06;101200;;;14.8;60.6
69405;BME280;57084;52.046;5.632;2022-09-17T00:12:00;101200;;;14.8;60.6
69405;BME280;57084;52.046;5.632;2022-09-17T00:13:00;101200;;;14.8;60.6
69405;BME280;57084;52.046;5.632;2022-09-17T00:14:00;101200;;;14.8;60.7
69405;BME280;57084;52.046;5.632;2022-09-17T00:15:00;101200;;;14.8;60.7
69405;BME280;57084;52.046;5.632;2022-09-17T00:16:00;101200;;;14.8;60.6
69405;BME280;57084;52.046;5.632;2022-09-17T00:17:00;101200;;;14.8;60.6
69405;BME280;57084;52.046;5.632;2022-09-17T00:18:00;101210;;;14.7;60.8
69405;BME280;57084;52.046;5.632;2022-09-17T00:19:00;101210;;;14.7;60.8
69405;BME280;57084;52.046;5.632;2022-09-17T00:20:00;101220;;;14.7;60.7
69405;BME280;57084;52.046;5.632;2022-09-17T00:21:00;101220;;;14.7;60.7
69405;BME280;57084;52.046;5.632;2022-09-17T00:22:00;101220;;;14.7;60.7
69405;BME280;57084;52.046;5.632;2022-09-17T00:23:00;101220;;;14.7;60.7
69405;BME280;57084;52.046;5.632;2022-09-17T00:24:01;101220;;;14.7;60.8
69405;BME280;57084;52.046;5.632;2022-09-17T00:25:00;101220;;;14.7;60.8
69405;BME280;57084;52.046;5.632;2022-09-17T00:26:03;101210;;;14.7;60.7
69405;BME280;57084;52.046;5.632;2022-09-17T00:27:00;101210;;;14.7;60.7
69405;BME280;57084;52.046;5.632;2022-09-17T00:28:00;101220;;;14.7;61.0
69405;BME280;57084;52.046;5.632;2022-09-17T00:29:00;101220;;;14.7;61.0
69405;BME280;57084;52.046;5.632;2022-09-17T00:30:00;101220;;;14.7;60.9
69405;BME280;57084;52.046;5.632;2022-09-17T00:31:00;101220;;;14.7;60.9
69405;BME280;57084;52.046;5.632;2022-09-17T00:32:00;101230;;;14.7;60.8
69405;BME280;57084;52.046;5.632;2022-09-17T00:33:00;101230;;;14.7;60.8
69405;BME280;57084;52.046;5.632;2022-09-17T00:34:00;101230;;;14.7;61.0
69405;BME280;57084;52.046;5.632;2022-09-17T00:35:00;101230;;;14.7;61.0
69405;BME280;57084;52.046;5.632;2022-09-17T00:36:01;101220;;;14.7;60.9
69405;BME280;57084;52.046;5.632;2022-09-17T00:37:00;101220;;;14.7;60.9
69405;BME280;57084;52.046;5.632;2022-09-17T00:38:00;101220;;;14.7;61.1
69405;BME280;57084;52.046;5.632;2022-09-17T00:39:00;101220;;;14.7;61.1
69405;BME280;57084;52.046;5.632;2022-09-17T00:40:00;101210;;;14.7;61.0
69405;BME280;57084;52.046;5.632;2022-09-17T00:41:00;101210;;;14.7;61.0
69405;BME280;57084;52.046;5.632;2022-09-17T00:42:00;101220;;;14.7;61.0
69405;BME280;57084;52.046;5.632;2022-09-17T00:43:00;101220;;;14.7;61.0
69405;BME280;57084;52.046;5.632;2022-09-17T00:44:00;101210;;;14.7;61.2
69405;BME280;57084;52.046;5.632;2022-09-17T00:45:00;101210;;;14.7;61.2
69405;BME280;57084;52.046;5.632;2022-09-17T00:46:00;101220;;;14.7;61.1
69405;BME280;57084;52.046;5.632;2022-09-17T00:47:00;101220;;;14.7;61.1
69405;BME280;57084;52.046;5.632;2022-09-17T00:48:00;101210;;;14.7;61.3
69405;BME280;57084;52.046;5.632;2022-09-17T00:49:00;101210;;;14.7;61.3
69405;BME280;57084;52.046;5.632;2022-09-17T00:50:01;101220;;;14.7;61.3
69405;BME280;57084;52.046;5.632;2022-09-17T00:51:00;101220;;;14.7;61.3
69405;BME280;57084;52.046;5.632;2022-09-17T00:52:00;101220;;;14.6;61.2
69405;BME280;57084;52.046;5.632;2022-09-17T00:53:01;101220;;;14.6;61.2
69405;BME280;57084;52.046;5.632;2022-09-17T00:54:00;101220;;;14.6;61.4
69405;BME280;57084;52.046;5.632;2022-09-17T00:55:02;101220;;;14.6;61.4
69405;BME280;57084;52.046;5.632;2022-09-17T00:56:01;101220;;;14.6;61.4
69405;BME280;57084;52.046;5.632;2022-09-17T00:57:00;101220;;;14.6;61.4
69405;BME280;57084;52.046;5.632;2022-09-17T00:58:00;101220;;;14.6;61.6
69405;BME280;57084;52.046;5.632;2022-09-17T00:59:00;101220;;;14.6;61.6
69405;BME280;57084;52.046;5.632;2022-09-17T01:00:00;101220;;;14.6;61.5
69405;BME280;57084;52.046;5.632;2022-09-17T01:01:00;101220;;;14.6;61.5
69405;BME280;57084;52.046;5.632;2022-09-17T01:02:00;101230;;;14.6;61.4
69405;BME280;57084;52.046;5.632;2022-09-17T01:03:00;101230;;;14.6;61.4
69405;BME280;57084;52.046;5.632;2022-09-17T01:04:00;101230;;;14.6;61.5
69405;BME280;57084;52.046;5.632;2022-09-17T01:05:00;101230;;;14.6;61.5
69405;BME280;57084;52.046;5.632;2022-09-17T01:06:02;101240;;;14.6;61.5
69405;BME280;57084;52.046;5.632;2022-09-17T01:07:01;101240;;;14.6;61.5
69405;BME280;57084;52.046;5.632;2022-09-17T01:08:04;101240;;;14.6;61.6
69405;BME280;57084;52.046;5.632;2022-09-17T01:09:04;101240;;;14.6;61.6
69405;BME280;57084;52.046;5.632;2022-09-17T01:10:02;101240;;;14.5;61.6
69405;BME280;57084;52.046;5.632;2022-09-17T01:11:06;101240;;;14.5;61.6
69405;BME280;57084;52.046;5.632;2022-09-17T01:12:12;101240;;;14.5;61.5
69405;BME280;57084;52.046;5.632;2022-09-17T01:13:02;101240;;;14.5;61.5
69405;BME280;57084;52.046;5.632;2022-09-17T01:14:02;101240;;;14.5;61.7
69405;BME280;57084;52.046;5.632;2022-09-17T01:15:03;101240;;;14.5;61.7
69405;BME280;57084;52.046;5.632;2022-09-17T01:16:03;101240;;;14.5;61.6
69405;BME280;57084;52.046;5.632;2022-09-17T01:17:02;101240;;;14.5;61.6
69405;BME280;57084;52.046;5.632;2022-09-17T01:18:06;101240;;;14.5;61.7
69405;BME280;57084;52.046;5.632;2022-09-17T01:19:04;101240;;;14.5;61.7
69405;BME280;57084;52.046;5.632;2022-09-17T01:21:13;101240;;;14.5;61.7
69405;BME280;57084;52.046;5.632;2022-09-17T01:22:00;101240;;;14.4;61.6
69405;BME280;57084;52.046;5.632;2022-09-17T01:23:05;101240;;;14.4;61.6
69405;BME280;57084;52.046;5.632;2022-09-17T01:24:07;101240;;;14.4;61.7
69405;BME280;57084;52.046;5.632;2022-09-17T01:25:05;101240;;;14.4;61.7
69405;BME280;57084;52.046;5.632;2022-09-17T01:26:04;101250;;;14.4;61.7
69405;BME280;57084;52.046;5.632;2022-09-17T01:29:01;101250;;;14.4;61.7
69405;BME280;57084;52.046;5.632;2022-09-17T01:30:09;101240;;;14.4;61.7
69405;BME280;57084;52.046;5.632;2022-09-17T01:31:00;101240;;;14.4;61.7
69405;BME280;57084;52.046;5.632;2022-09-17T01:32:02;101240;;;14.4;61.7
69405;BME280;57084;52.046;5.632;2022-09-17T01:33:01;101240;;;14.4;61.7
69405;BME280;57084;52.046;5.632;2022-09-17T01:34:01;101240;;;14.3;61.7
69405;BME280;57084;52.046;5.632;2022-09-17T01:35:00;101240;;;14.3;61.7
69405;BME280;57084;52.046;5.632;2022-09-17T01:36:01;101250;;;14.3;61.7
69405;BME280;57084;52.046;5.632;2022-09-17T01:37:01;101250;;;14.3;61.7
69405;BME280;57084;52.046;5.632;2022-09-17T01:38:00;101250;;;14.3;61.7
69405;BME280;57084;52.046;5.632;2022-09-17T01:39:02;101250;;;14.3;61.7
69405;BME280;57084;52.046;5.632;2022-09-17T01:40:02;101250;;;14.3;61.8
69405;BME280;57084;52.046;5.632;2022-09-17T01:41:01;101250;;;14.3;61.8
69405;BME280;57084;52.046;5.632;2022-09-17T01:42:03;101250;;;14.3;61.7
69405;BME280;57084;52.046;5.632;2022-09-17T01:43:01;101250;;;14.3;61.7
69405;BME280;57084;52.046;5.632;2022-09-17T01:44:01;101250;;;14.2;61.8
69405;BME280;57084;52.046;5.632;2022-09-17T01:45:01;101250;;;14.2;61.8
69405;BME280;57084;52.046;5.632;2022-09-17T01:46:00;101250;;;14.2;61.8
69405;BME280;57084;52.046;5.632;2022-09-17T01:47:00;101250;;;14.2;61.8
69405;BME280;57084;52.046;5.632;2022-09-17T01:48:01;101260;;;14.2;61.9
69405;BME280;57084;52.046;5.632;2022-09-17T01:49:01;101260;;;14.2;61.9
69405;BME280;57084;52.046;5.632;2022-09-17T01:50:00;101260;;;14.2;61.9
69405;BME280;57084;52.046;5.632;2022-09-17T01:51:03;101260;;;14.2;61.9
69405;BME280;57084;52.046;5.632;2022-09-17T01:52:00;101260;;;14.1;61.9
69405;BME280;57084;52.046;5.632;2022-09-17T01:53:00;101260;;;14.1;61.9
69405;BME280;57084;52.046;5.632;2022-09-17T01:54:00;101270;;;14.1;62.0
69405;BME280;57084;52.046;5.632;2022-09-17T01:55:00;101270;;;14.1;62.0
69405;BME280;57084;52.046;5.632;2022-09-17T01:56:00;101270;;;14.1;62.0
69405;BME280;57084;52.046;5.632;2022-09-17T01:57:02;101270;;;14.1;62.0
69405;BME280;57084;52.046;5.632;2022-09-17T01:58:00;101270;;;14.1;62.0
69405;BME280;57084;52.046;5.632;2022-09-17T01:59:00;101270;;;14.1;62.0
69405;BME280;57084;52.046;5.632;2022-09-17T02:00:00;101270;;;14.1;62.0
69405;BME280;57084;52.046;5.632;2022-09-17T02:01:00;101270;;;14.1;62.0
69405;BME280;57084;52.046;5.632;2022-09-17T02:02:02;101270;;;14.1;62.0
69405;BME280;57084;52.046;5.632;2022-09-17T02:03:01;101270;;;14.1;62.0
69405;BME280;57084;52.046;5.632;2022-09-17T02:04:01;101270;;;14.0;62.1
69405;BME280;57084;52.046;5.632;2022-09-17T02:05:02;101270;;;14.0;62.1
69405;BME280;57084;52.046;5.632;2022-09-17T02:06:00;101260;;;14.0;62.0
69405;BME280;57084;52.046;5.632;2022-09-17T02:07:01;101260;;;14.0;62.0
69405;BME280;57084;52.046;5.632;2022-09-17T02:08:02;101260;;;14.0;62.1
69405;BME280;57084;52.046;5.632;2022-09-17T02:09:00;101260;;;14.0;62.1
69405;BME280;57084;52.046;5.632;2022-09-17T02:10:01;101260;;;14.0;62.1
69405;BME280;57084;52.046;5.632;2022-09-17T02:11:01;101260;;;14.0;62.1
69405;BME280;57084;52.046;5.632;2022-09-17T02:12:00;101260;;;14.0;62.1
69405;BME280;57084;52.046;5.632;2022-09-17T02:13:01;101260;;;14.0;62.1
69405;BME280;57084;52.046;5.632;2022-09-17T02:14:01;101260;;;14.0;62.2
69405;BME280;57084;52.046;5.632;2022-09-17T02:15:00;101260;;;14.0;62.2
69405;BME280;57084;52.046;5.632;2022-09-17T02:16:01;101260;;;14.0;62.1
69405;BME280;57084;52.046;5.632;2022-09-17T02:17:02;101260;;;14.0;62.1
69405;BME280;57084;52.046;5.632;2022-09-17T02:18:02;101260;;;14.0;62.1
69405;BME280;57084;52.046;5.632;2022-09-17T02:19:01;101260;;;14.0;62.1
69405;BME280;57084;52.046;5.632;2022-09-17T02:20:00;101250;;;14.0;62.2
69405;BME280;57084;52.046;5.632;2022-09-17T02:21:01;101250;;;14.0;62.2
69405;BME280;57084;52.046;5.632;2022-09-17T02:22:01;101260;;;14.0;62.1
69405;BME280;57084;52.046;5.632;2022-09-17T02:23:00;101260;;;14.0;62.1
69405;BME280;57084;52.046;5.632;2022-09-17T02:24:02;101260;;;13.9;62.3
69405;BME280;57084;52.046;5.632;2022-09-17T02:25:01;101260;;;13.9;62.3
69405;BME280;57084;52.046;5.632;2022-09-17T02:26:01;101260;;;14.0;62.2
69405;BME280;57084;52.046;5.632;2022-09-17T02:27:01;101260;;;14.0;62.2
69405;BME280;57084;52.046;5.632;2022-09-17T02:28:00;101260;;;14.0;62.1
69405;BME280;57084;52.046;5.632;2022-09-17T02:29:01;101260;;;14.0;62.1
69405;BME280;57084;52.046;5.632;2022-09-17T02:30:00;101260;;;13.9;62.3
69405;BME280;57084;52.046;5.632;2022-09-17T02:31:00;101260;;;13.9;62.3
69405;BME280;57084;52.046;5.632;2022-09-17T02:32:00;101260;;;13.9;62.2
69405;BME280;57084;52.046;5.632;2022-09-17T02:33:00;101260;;;13.9;62.2
69405;BME280;57084;52.046;5.632;2022-09-17T02:34:00;101270;;;13.9;62.3
69405;BME280;57084;52.046;5.632;2022-09-17T02:35:00;101270;;;13.9;62.3
69405;BME280;57084;52.046;5.632;2022-09-17T02:36:00;101270;;;13.9;62.2
69405;BME280;57084;52.046;5.632;2022-09-17T02:37:00;101270;;;13.9;62.2
69405;BME280;57084;52.046;5.632;2022-09-17T02:38:00;101260;;;13.9;62.2
69405;BME280;57084;52.046;5.632;2022-09-17T02:39:00;101260;;;13.9;62.2
69405;BME280;57084;52.046;5.632;2022-09-17T02:40:00;101260;;;13.9;62.3
69405;BME280;57084;52.046;5.632;2022-09-17T02:41:01;101260;;;13.9;62.3
69405;BME280;57084;52.046;5.632;2022-09-17T02:42:02;101260;;;13.9;62.3
69405;BME280;57084;52.046;5.632;2022-09-17T02:43:03;101260;;;13.9;62.3
69405;BME280;57084;52.046;5.632;2022-09-17T02:44:03;101270;;;13.9;62.4
69405;BME280;57084;52.046;5.632;2022-09-17T02:45:03;101270;;;13.9;62.4
69405;BME280;57084;52.046;5.632;2022-09-17T02:46:03;101270;;;13.9;62.3
69405;BME280;57084;52.046;5.632;2022-09-17T02:47:05;101270;;;13.9;62.3
69405;BME280;57084;52.046;5.632;2022-09-17T02:48:04;101270;;;13.9;62.2
69405;BME280;57084;52.046;5.632;2022-09-17T02:49:03;101270;;;13.9;62.2
69405;BME280;57084;52.046;5.632;2022-09-17T02:50:04;101270;;;13.9;62.3
69405;BME280;57084;52.046;5.632;2022-09-17T02:51:05;101270;;;13.9;62.3
69405;BME280;57084;52.046;5.632;2022-09-17T02:52:02;101270;;;13.9;62.3
69405;BME280;57084;52.046;5.632;2022-09-17T02:53:04;101270;;;13.9;62.3
69405;BME280;57084;52.046;5.632;2022-09-17T02:54:02;101270;;;13.9;62.2
69405;BME280;57084;52.046;5.632;2022-09-17T02:55:01;101270;;;13.9;62.2
69405;BME280;57084;52.046;5.632;2022-09-17T02:56:01;101270;;;13.8;62.2
69405;BME280;57084;52.046;5.632;2022-09-17T02:57:04;101270;;;13.8;62.2
69405;BME280;57084;52.046;5.632;2022-09-17T02:58:02;101270;;;13.8;62.2
69405;BME280;57084;52.046;5.632;2022-09-17T02:59:01;101270;;;13.8;62.2
69405;BME280;57084;52.046;5.632;2022-09-17T03:00:03;101270;;;13.8;62.2
69405;BME280;57084;52.046;5.632;2022-09-17T03:01:02;101270;;;13.8;62.2
69405;BME280;57084;52.046;5.632;2022-09-17T03:02:01;101280;;;13.8;62.2
69405;BME280;57084;52.046;5.632;2022-09-17T03:03:00;101280;;;13.8;62.2
69405;BME280;57084;52.046;5.632;2022-09-17T03:04:00;101280;;;13.8;62.3
69405;BME280;57084;52.046;5.632;2022-09-17T03:05:00;101280;;;13.8;62.3
69405;BME280;57084;52.046;5.632;2022-09-17T03:06:00;101270;;;13.8;62.3
69405;BME280;57084;52.046;5.632;2022-09-17T03:07:03;101270;;;13.8;62.3
69405;BME280;57084;52.046;5.632;2022-09-17T03:08:00;101270;;;13.7;62.2
69405;BME280;57084;52.046;5.632;2022-09-17T03:09:00;101270;;;13.7;62.2
69405;BME280;57084;52.046;5.632;2022-09-17T03:10:00;101280;;;13.7;62.2
69405;BME280;57084;52.046;5.632;2022-09-17T03:11:00;101280;;;13.7;62.2
69405;BME280;57084;52.046;5.632;2022-09-17T03:12:00;101280;;;13.7;62.2
69405;BME280;57084;52.046;5.632;2022-09-17T03:13:00;101280;;;13.7;62.2
69405;BME280;57084;52.046;5.632;2022-09-17T03:14:00;101280;;;13.7;62.3
69405;BME280;57084;52.046;5.632;2022-09-17T03:15:00;101280;;;13.7;62.3
69405;BME280;57084;52.046;5.632;2022-09-17T03:16:00;101270;;;13.7;62.3
69405;BME280;57084;52.046;5.632;2022-09-17T03:17:00;101270;;;13.7;62.3
69405;BME280;57084;52.046;5.632;2022-09-17T03:18:00;101270;;;13.7;62.2
69405;BME280;57084;52.046;5.632;2022-09-17T03:19:00;101270;;;13.7;62.2
69405;BME280;57084;52.046;5.632;2022-09-17T03:20:00;101270;;;13.7;62.3
69405;BME280;57084;52.046;5.632;2022-09-17T03:21:00;101270;;;13.7;62.3
69405;BME280;57084;52.046;5.632;2022-09-17T03:22:00;101270;;;13.7;62.2
69405;BME280;57084;52.046;5.632;2022-09-17T03:23:00;101270;;;13.7;62.2
69405;BME280;57084;52.046;5.632;2022-09-17T03:24:00;101270;;;13.6;62.2
69405;BME280;57084;52.046;5.632;2022-09-17T03:25:00;101270;;;13.6;62.2
69405;BME280;57084;52.046;5.632;2022-09-17T03:26:00;101270;;;13.6;62.2
69405;BME280;57084;52.046;5.632;2022-09-17T03:27:00;101270;;;13.6;62.2
69405;BME280;57084;52.046;5.632;2022-09-17T03:28:00;101270;;;13.6;62.2
69405;BME280;57084;52.046;5.632;2022-09-17T03:29:00;101270;;;13.6;62.2
69405;BME280;57084;52.046;5.632;2022-09-17T03:30:00;101280;;;13.6;62.2
69405;BME280;57084;52.046;5.632;2022-09-17T03:31:00;101280;;;13.6;62.2
69405;BME280;57084;52.046;5.632;2022-09-17T03:32:00;101270;;;13.6;62.2
69405;BME280;57084;52.046;5.632;2022-09-17T03:33:00;101270;;;13.6;62.2
69405;BME280;57084;52.046;5.632;2022-09-17T03:34:00;101270;;;13.6;62.2
69405;BME280;57084;52.046;5.632;2022-09-17T03:35:00;101270;;;13.6;62.2
69405;BME280;57084;52.046;5.632;2022-09-17T03:36:00;101260;;;13.6;62.2
69405;BME280;57084;52.046;5.632;2022-09-17T03:37:00;101260;;;13.6;62.2
69405;BME280;57084;52.046;5.632;2022-09-17T03:38:00;101260;;;13.6;62.2
69405;BME280;57084;52.046;5.632;2022-09-17T03:39:00;101260;;;13.6;62.2
69405;BME280;57084;52.046;5.632;2022-09-17T03:40:00;101260;;;13.6;62.3
69405;BME280;57084;52.046;5.632;2022-09-17T03:41:00;101260;;;13.6;62.3
69405;BME280;57084;52.046;5.632;2022-09-17T03:42:00;101270;;;13.6;62.2
69405;BME280;57084;52.046;5.632;2022-09-17T03:43:00;101270;;;13.6;62.2
69405;BME280;57084;52.046;5.632;2022-09-17T03:44:00;101270;;;13.6;62.2
69405;BME280;57084;52.046;5.632;2022-09-17T03:45:00;101270;;;13.6;62.2
69405;BME280;57084;52.046;5.632;2022-09-17T03:46:00;101270;;;13.6;62.2
69405;BME280;57084;52.046;5.632;2022-09-17T03:47:00;101270;;;13.6;62.2
69405;BME280;57084;52.046;5.632;2022-09-17T03:48:00;101270;;;13.6;62.2
69405;BME280;57084;52.046;5.632;2022-09-17T03:49:00;101270;;;13.6;62.2
69405;BME280;57084;52.046;5.632;2022-09-17T03:50:00;101260;;;13.6;62.2
69405;BME280;57084;52.046;5.632;2022-09-17T03:51:00;101260;;;13.6;62.2
69405;BME280;57084;52.046;5.632;2022-09-17T03:52:00;101260;;;13.6;62.2
69405;BME280;57084;52.046;5.632;2022-09-17T03:53:00;101260;;;13.6;62.2
69405;BME280;57084;52.046;5.632;2022-09-17T03:54:00;101270;;;13.6;62.2
69405;BME280;57084;52.046;5.632;2022-09-17T03:55:00;101270;;;13.6;62.2
69405;BME280;57084;52.046;5.632;2022-09-17T03:56:00;101270;;;13.6;62.2
69405;BME280;57084;52.046;5.632;2022-09-17T03:57:00;101270;;;13.6;62.2
69405;BME280;57084;52.046;5.632;2022-09-17T03:58:00;101270;;;13.6;62.2
69405;BME280;57084;52.046;5.632;2022-09-17T03:59:00;101270;;;13.6;62.2
69405;BME280;57084;52.046;5.632;2022-09-17T04:00:00;101270;;;13.6;62.2
69405;BME280;57084;52.046;5.632;2022-09-17T04:01:00;101270;;;13.6;62.2
69405;BME280;57084;52.046;5.632;2022-09-17T04:02:00;101270;;;13.6;62.2
69405;BME280;57084;52.046;5.632;2022-09-17T04:03:00;101270;;;13.6;62.2
69405;BME280;57084;52.046;5.632;2022-09-17T04:04:00;101270;;;13.5;62.2
69405;BME280;57084;52.046;5.632;2022-09-17T04:05:00;101270;;;13.5;62.2
69405;BME280;57084;52.046;5.632;2022-09-17T04:06:00;101270;;;13.5;62.2
69405;BME280;57084;52.046;5.632;2022-09-17T04:07:00;101270;;;13.5;62.2
69405;BME280;57084;52.046;5.632;2022-09-17T04:08:00;101270;;;13.5;62.2
69405;BME280;57084;52.046;5.632;2022-09-17T04:09:00;101270;;;13.5;62.2
69405;BME280;57084;52.046;5.632;2022-09-17T04:10:00;101270;;;13.5;62.2
69405;BME280;57084;52.046;5.632;2022-09-17T04:11:00;101270;;;13.5;62.2
69405;BME280;57084;52.046;5.632;2022-09-17T04:12:00;101280;;;13.5;62.2
69405;BME280;57084;52.046;5.632;2022-09-17T04:13:00;101280;;;13.5;62.2
69405;BME280;57084;52.046;5.632;2022-09-17T04:14:00;101280;;;13.5;62.2
69405;BME280;57084;52.046;5.632;2022-09-17T04:15:00;101280;;;13.5;62.2
69405;BME280;57084;52.046;5.632;2022-09-17T04:16:00;101280;;;13.5;62.2
69405;BME280;57084;52.046;5.632;2022-09-17T04:17:00;101280;;;13.5;62.2
69405;BME280;57084;52.046;5.632;2022-09-17T04:18:00;101280;;;13.5;62.2
69405;BME280;57084;52.046;5.632;2022-09-17T04:19:00;101280;;;13.5;62.2
69405;BME280;57084;52.046;5.632;2022-09-17T04:20:00;101280;;;13.5;62.3
69405;BME280;57084;52.046;5.632;2022-09-17T04:21:00;101280;;;13.5;62.3
69405;BME280;57084;52.046;5.632;2022-09-17T04:22:00;101280;;;13.5;62.3
69405;BME280;57084;52.046;5.632;2022-09-17T04:23:00;101280;;;13.5;62.3
69405;BME280;57084;52.046;5.632;2022-09-17T04:24:00;101290;;;13.5;62.2
69405;BME280;57084;52.046;5.632;2022-09-17T04:25:00;101290;;;13.5;62.2
69405;BME280;57084;52.046;5.632;2022-09-17T04:26:00;101280;;;13.4;62.3
69405;BME280;57084;52.046;5.632;2022-09-17T04:27:00;101280;;;13.4;62.3
69405;BME280;57084;52.046;5.632;2022-09-17T04:28:00;101280;;;13.4;62.3
69405;BME280;57084;52.046;5.632;2022-09-17T04:29:00;101280;;;13.4;62.3
69405;BME280;57084;52.046;5.632;2022-09-17T04:30:00;101290;;;13.4;62.3
69405;BME280;57084;52.046;5.632;2022-09-17T04:31:00;101290;;;13.4;62.3
69405;BME280;57084;52.046;5.632;2022-09-17T04:32:00;101280;;;13.4;62.3
69405;BME280;57084;52.046;5.632;2022-09-17T04:33:00;101280;;;13.4;62.3
69405;BME280;57084;52.046;5.632;2022-09-17T04:34:00;101280;;;13.4;62.2
69405;BME280;57084;52.046;5.632;2022-09-17T04:35:00;101280;;;13.4;62.2
69405;BME280;57084;52.046;5.632;2022-09-17T04:36:00;101280;;;13.4;62.3
69405;BME280;57084;52.046;5.632;2022-09-17T04:37:00;101280;;;13.4;62.3
69405;BME280;57084;52.046;5.632;2022-09-17T04:38:00;101280;;;13.4;62.3
69405;BME280;57084;52.046;5.632;2022-09-17T04:39:00;101280;;;13.4;62.3
69405;BME280;57084;52.046;5.632;2022-09-17T04:40:00;101280;;;13.4;62.3
69405;BME280;57084;52.046;5.632;2022-09-17T04:41:00;101280;;;13.4;62.3
69405;BME280;57084;52.046;5.632;2022-09-17T04:42:00;101280;;;13.4;62.3
69405;BME280;57084;52.046;5.632;2022-09-17T04:43:00;101280;;;13.4;62.3
69405;BME280;57084;52.046;5.632;2022-09-17T04:44:00;101280;;;13.4;62.3
69405;BME280;57084;52.046;5.632;2022-09-17T04:45:00;101280;;;13.4;62.3
69405;BME280;57084;52.046;5.632;2022-09-17T04:46:00;101290;;;13.4;62.4
69405;BME280;57084;52.046;5.632;2022-09-17T04:47:00;101290;;;13.4;62.4
69405;BME280;57084;52.046;5.632;2022-09-17T04:48:00;101290;;;13.4;62.4
69405;BME280;57084;52.046;5.632;2022-09-17T04:49:00;101290;;;13.4;62.4
69405;BME280;57084;52.046;5.632;2022-09-17T04:50:00;101280;;;13.4;62.4
69405;BME280;57084;52.046;5.632;2022-09-17T04:51:00;101280;;;13.4;62.4
69405;BME280;57084;52.046;5.632;2022-09-17T04:52:00;101280;;;13.4;62.4
69405;BME280;57084;52.046;5.632;2022-09-17T04:53:00;101280;;;13.4;62.4
69405;BME280;57084;52.046;5.632;2022-09-17T04:54:00;101290;;;13.4;62.3
69405;BME280;57084;52.046;5.632;2022-09-17T04:55:00;101290;;;13.4;62.3
69405;BME280;57084;52.046;5.632;2022-09-17T04:56:00;101280;;;13.3;62.4
69405;BME280;57084;52.046;5.632;2022-09-17T04:57:00;101280;;;13.3;62.4
69405;BME280;57084;52.046;5.632;2022-09-17T04:58:00;101290;;;13.3;62.4
69405;BME280;57084;52.046;5.632;2022-09-17T04:59:00;101290;;;13.3;62.4
69405;BME280;57084;52.046;5.632;2022-09-17T05:00:00;101290;;;13.3;62.4
69405;BME280;57084;52.046;5.632;2022-09-17T05:01:00;101290;;;13.3;62.4
69405;BME280;57084;52.046;5.632;2022-09-17T05:02:00;101290;;;13.3;62.4
69405;BME280;57084;52.046;5.632;2022-09-17T05:03:00;101290;;;13.3;62.4
69405;BME280;57084;52.046;5.632;2022-09-17T05:04:00;101290;;;13.3;62.4
69405;BME280;57084;52.046;5.632;2022-09-17T05:05:00;101290;;;13.3;62.4
69405;BME280;57084;52.046;5.632;2022-09-17T05:06:00;101290;;;13.3;62.4
69405;BME280;57084;52.046;5.632;2022-09-17T05:07:00;101290;;;13.3;62.4
69405;BME280;57084;52.046;5.632;2022-09-17T05:08:00;101290;;;13.3;62.4
69405;BME280;57084;52.046;5.632;2022-09-17T05:09:00;101290;;;13.3;62.4
69405;BME280;57084;52.046;5.632;2022-09-17T05:10:00;101290;;;13.3;62.4
69405;BME280;57084;52.046;5.632;2022-09-17T05:11:00;101290;;;13.3;62.4
69405;BME280;57084;52.046;5.632;2022-09-17T05:12:00;101300;;;13.3;62.4
69405;BME280;57084;52.046;5.632;2022-09-17T05:13:00;101300;;;13.3;62.4
69405;BME280;57084;52.046;5.632;2022-09-17T05:14:00;101300;;;13.3;62.3
69405;BME280;57084;52.046;5.632;2022-09-17T05:15:00;101300;;;13.3;62.3
69405;BME280;57084;52.046;5.632;2022-09-17T05:16:00;101290;;;13.3;62.4
69405;BME280;57084;52.046;5.632;2022-09-17T05:17:00;101290;;;13.3;62.4
69405;BME280;57084;52.046;5.632;2022-09-17T05:18:00;101290;;;13.3;62.4
69405;BME280;57084;52.046;5.632;2022-09-17T05:19:00;101290;;;13.3;62.4
69405;BME280;57084;52.046;5.632;2022-09-17T05:20:00;101290;;;13.3;62.4
69405;BME280;57084;52.046;5.632;2022-09-17T05:21:00;101290;;;13.3;62.4
69405;BME280;57084;52.046;5.632;2022-09-17T05:22:00;101290;;;13.3;62.4
69405;BME280;57084;52.046;5.632;2022-09-17T05:23:00;101290;;;13.3;62.4
69405;BME280;57084;52.046;5.632;2022-09-17T05:24:00;101300;;;13.3;62.3
69405;BME280;57084;52.046;5.632;2022-09-17T05:25:00;101300;;;13.3;62.3
69405;BME280;57084;52.046;5.632;2022-09-17T05:26:00;101300;;;13.3;62.4
69405;BME280;57084;52.046;5.632;2022-09-17T05:27:00;101300;;;13.3;62.4
69405;BME280;57084;52.046;5.632;2022-09-17T05:28:00;101300;;;13.3;62.3
69405;BME280;57084;52.046;5.632;2022-09-17T05:29:00;101300;;;13.3;62.3
69405;BME280;57084;52.046;5.632;2022-09-17T05:30:00;101310;;;13.3;62.4
69405;BME280;57084;52.046;5.632;2022-09-17T05:31:00;101310;;;13.3;62.4
69405;BME280;57084;52.046;5.632;2022-09-17T05:32:00;101310;;;13.2;62.4
69405;BME280;57084;52.046;5.632;2022-09-17T05:33:00;101310;;;13.2;62.4
69405;BME280;57084;52.046;5.632;2022-09-17T05:34:00;101310;;;13.2;62.3
69405;BME280;57084;52.046;5.632;2022-09-17T05:35:00;101310;;;13.2;62.3
69405;BME280;57084;52.046;5.632;2022-09-17T05:36:00;101310;;;13.2;62.4
69405;BME280;57084;52.046;5.632;2022-09-17T05:37:00;101310;;;13.2;62.4
69405;BME280;57084;52.046;5.632;2022-09-17T05:38:00;101310;;;13.2;62.4